Time;durP1;ratioP1;P1;durP2;ratioP2;P2;SDS_P1;SDS_P2;PMS_P1;PMS_P2;Temp;Humidity;BMP_temperature;BMP_pressure;BME280_temperature;BME280_humidity;BME280_pressure;Samples;Min_cycle;Max_cycle;Signal;HPM_P1;HPM_P2
2023/09/15 00:02:24;;;;;;;2.22;1.17;;;11.80;1.00;;;;;;5033958;28;20080;-66
2023/09/15 00:04:51;;;;;;;1.55;1.10;;;11.90;1.00;;;;;;5033871;28;20120;-66
2023/09/15 00:07:17;;;;;;;1.10;1.00;;;11.80;1.00;;;;;;5033455;28;20045;-66
2023/09/15 00:09:42;;;;;;;0.95;0.90;;;11.80;1.00;;;;;;5015829;28;20126;-66
2023/09/15 00:12:09;;;;;;;0.80;0.80;;;11.80;1.00;;;;;;5015830;28;20033;-66
2023/09/15 00:14:34;;;;;;;0.85;0.80;;;11.70;1.00;;;;;;5015748;28;20425;-66
2023/09/15 00:17:00;;;;;;;1.00;0.90;;;11.80;1.00;;;;;;5033382;28;20056;-66
2023/09/15 00:19:26;;;;;;;2.08;1.40;;;11.80;1.00;;;;;;5015682;28;20092;-66
2023/09/15 00:21:52;;;;;;;0.80;0.80;;;11.80;1.00;;;;;;5033319;28;20041;-66
2023/09/15 00:24:18;;;;;;;1.08;0.90;;;11.70;1.00;;;;;;5033481;28;20132;-71
2023/09/15 00:26:43;;;;;;;1.33;0.90;;;11.70;1.00;;;;;;5015878;28;20037;-71
2023/09/15 00:29:09;;;;;;;0.70;0.70;;;11.70;1.00;;;;;;5015432;28;20041;-71
2023/09/15 00:31:35;;;;;;;1.30;1.00;;;11.70;1.00;;;;;;5033317;28;20056;-71
2023/09/15 00:34:01;;;;;;;1.52;0.93;;;11.70;1.00;;;;;;4999457;28;20043;-71
2023/09/15 00:36:26;;;;;;;1.38;1.20;;;11.60;1.00;;;;;;4999084;28;20041;-71
2023/09/15 00:38:52;;;;;;;1.00;0.90;;;11.60;1.00;;;;;;5015880;28;20037;-71
2023/09/15 00:41:18;;;;;;;1.17;0.93;;;11.60;1.00;;;;;;5015390;28;20049;-71
2023/09/15 00:43:43;;;;;;;1.13;0.90;;;11.60;1.00;;;;;;5015422;28;20045;-71
2023/09/15 00:46:10;;;;;;;1.38;0.90;;;11.60;1.00;;;;;;5015431;28;20041;-70
2023/09/15 00:48:39;;;;;;;1.02;0.80;;;11.60;1.00;;;;;;5015225;28;20480;-71
2023/09/15 00:51:07;;;;;;;1.27;0.95;;;11.60;1.00;;;;;;5032956;28;20041;-72
2023/09/15 00:53:35;;;;;;;1.08;1.00;;;11.50;1.00;;;;;;5015534;28;20042;-71
2023/09/15 00:56:03;;;;;;;0.80;0.80;;;11.50;1.00;;;;;;5015305;28;20037;-70
2023/09/15 00:58:29;;;;;;;0.90;0.85;;;11.50;1.00;;;;;;5015560;28;20045;-71
2023/09/15 01:00:55;;;;;;;1.55;1.25;;;11.50;1.00;;;;;;5033153;28;20025;-71
2023/09/15 01:03:22;;;;;;;0.98;0.88;;;11.50;1.00;;;;;;5015304;28;20034;-71
2023/09/15 01:05:48;;;;;;;1.02;0.82;;;11.50;1.00;;;;;;5015198;28;20045;-70
2023/09/15 01:08:13;;;;;;;1.63;0.95;;;11.50;1.00;;;;;;5032794;28;20053;-71
2023/09/15 01:10:39;;;;;;;1.15;1.08;;;11.40;1.00;;;;;;5015473;28;20499;-70
2023/09/15 01:13:05;;;;;;;1.02;0.80;;;11.50;1.00;;;;;;5015477;28;20397;-71
2023/09/15 01:15:48;;;;;;;1.52;1.10;;;11.40;1.00;;;;;;5015164;28;20064;-71
2023/09/15 01:18:26;;;;;;;0.93;0.90;;;11.40;1.00;;;;;;5015433;28;20489;-70
2023/09/15 01:21:07;;;;;;;1.50;1.10;;;11.40;1.00;;;;;;5015108;28;20064;-70
2023/09/15 01:24:07;;;;;;;1.42;1.10;;;11.40;1.00;;;;;;5015336;28;20048;-71
2023/09/15 01:26:51;;;;;;;0.80;0.80;;;11.40;1.00;;;;;;5015584;28;20045;-71
2023/09/15 01:29:37;;;;;;;1.08;1.00;;;11.40;1.00;;;;;;5015207;28;20041;-70
2023/09/15 01:32:07;;;;;;;2.13;1.00;;;11.40;1.00;;;;;;5032833;28;20045;-70
2023/09/15 01:34:35;;;;;;;2.22;1.10;;;11.30;1.00;;;;;;5032848;28;20041;-65
2023/09/15 01:37:01;;;;;;;3.03;1.02;;;11.30;1.00;;;;;;5032905;28;20033;-65
2023/09/15 01:39:30;;;;;;;0.93;0.80;;;11.30;1.00;;;;;;5032831;28;20037;-65
2023/09/15 01:42:00;;;;;;;1.13;1.05;;;11.30;1.00;;;;;;5032895;28;20048;-65
2023/09/15 01:44:26;;;;;;;0.80;0.80;;;11.20;1.00;;;;;;5032502;28;20053;-65
2023/09/15 01:46:51;;;;;;;1.30;0.82;;;11.30;1.00;;;;;;5014839;28;20038;-65
2023/09/15 01:49:19;;;;;;;1.55;0.98;;;11.20;1.00;;;;;;5014788;28;20059;-65
2023/09/15 01:51:48;;;;;;;0.95;0.90;;;11.90;1.00;;;;;;5032496;28;20043;-65
2023/09/15 01:54:18;;;;;;;1.15;0.95;;;11.20;1.00;;;;;;5032461;28;20432;-65
2023/09/15 01:56:44;;;;;;;1.63;1.17;;;11.10;1.00;;;;;;5014809;28;20046;-65
2023/09/15 01:59:10;;;;;;;1.20;1.10;;;11.10;1.00;;;;;;5032578;28;20046;-65
2023/09/15 02:01:36;;;;;;;0.80;0.80;;;11.10;1.00;;;;;;5032657;28;20041;-65
2023/09/15 02:04:01;;;;;;;1.40;0.85;;;11.10;1.00;;;;;;5014641;28;20045;-65
2023/09/15 02:06:27;;;;;;;2.08;1.23;;;11.10;1.00;;;;;;5034988;28;20099;-65
2023/09/15 02:08:52;;;;;;;1.08;0.93;;;11.00;1.00;;;;;;5035864;28;20505;-65
2023/09/15 02:11:18;;;;;;;0.95;0.80;;;11.00;1.00;;;;;;5036103;28;20108;-65
2023/09/15 02:13:44;;;;;;;1.15;1.00;;;10.90;1.00;;;;;;5035764;28;20037;-64
2023/09/15 02:16:11;;;;;;;0.80;0.80;;;11.00;1.00;;;;;;5035484;28;20057;-65
2023/09/15 02:18:36;;;;;;;1.00;0.85;;;10.90;1.00;;;;;;5017920;28;20049;-65
2023/09/15 02:21:03;;;;;;;1.20;1.10;;;11.00;1.00;;;;;;5035929;28;20458;-65
2023/09/15 02:23:29;;;;;;;2.05;0.90;;;10.90;1.00;;;;;;5035763;28;20386;-65
2023/09/15 02:25:55;;;;;;;1.20;1.10;;;11.00;1.00;;;;;;5017873;28;20041;-65
2023/09/15 02:28:20;;;;;;;0.80;0.80;;;10.90;1.00;;;;;;5035392;28;20132;-65
2023/09/15 02:30:47;;;;;;;1.65;0.90;;;11.00;1.00;;;;;;5035748;28;20033;-65
2023/09/15 02:33:13;;;;;;;1.40;0.77;;;10.90;1.00;;;;;;5017756;28;20049;-65
2023/09/15 02:35:38;;;;;;;0.88;0.88;;;10.90;1.00;;;;;;5035393;28;20044;-65
2023/09/15 02:38:04;;;;;;;2.20;1.15;;;10.90;1.00;;;;;;5035255;28;20045;-65
2023/09/15 02:40:30;;;;;;;1.17;1.00;;;10.80;10.20;;;;;;5035564;28;20099;-65
2023/09/15 02:42:56;;;;;;;0.88;0.80;;;10.80;9.80;;;;;;5017738;28;20052;-65
2023/09/15 02:45:21;;;;;;;1.63;0.93;;;10.80;4.90;;;;;;5017643;28;20072;-71
2023/09/15 02:47:47;;;;;;;1.10;1.00;;;10.70;5.80;;;;;;5017616;28;20084;-70
2023/09/15 02:50:12;;;;;;;2.28;1.25;;;11.20;1.00;;;;;;5017889;28;20039;-71
2023/09/15 02:52:38;;;;;;;1.73;0.90;;;10.70;5.50;;;;;;5017545;28;20033;-70
2023/09/15 02:55:05;;;;;;;1.80;1.10;;;10.70;15.20;;;;;;5035653;28;20037;-70
2023/09/15 02:57:31;;;;;;;2.25;1.58;;;10.70;14.20;;;;;;5017626;28;20412;-70
2023/09/15 02:59:56;;;;;;;1.50;1.00;;;10.70;16.40;;;;;;5035288;28;20037;-70
2023/09/15 03:02:22;;;;;;;0.80;0.80;;;10.70;22.60;;;;;;5017401;28;20037;-70
2023/09/15 03:04:48;;;;;;;1.55;0.90;;;10.70;20.80;;;;;;5017134;28;20037;-69
2023/09/15 03:07:14;;;;;;;1.23;0.88;;;10.70;18.60;;;;;;5017046;28;20115;-71
2023/09/15 03:09:40;;;;;;;1.20;1.10;;;10.70;17.80;;;;;;5017080;28;20037;-70
2023/09/15 03:12:06;;;;;;;1.00;0.85;;;10.70;19.10;;;;;;5034753;28;20053;-71
2023/09/15 03:14:32;;;;;;;1.05;0.80;;;10.60;16.80;;;;;;5017131;28;20037;-71
2023/09/15 03:16:58;;;;;;;1.80;0.90;;;10.60;20.30;;;;;;5015718;28;20053;-70
2023/09/15 03:19:24;;;;;;;1.00;0.90;;;10.60;20.70;;;;;;5016967;28;20120;-71
2023/09/15 03:21:50;;;;;;;0.80;0.80;;;10.60;18.60;;;;;;5034801;28;20034;-71
2023/09/15 03:24:16;;;;;;;0.95;0.95;;;10.60;21.00;;;;;;5016708;28;20060;-70
2023/09/15 03:26:42;;;;;;;1.67;1.20;;;10.90;18.00;;;;;;5016557;28;20037;-70
2023/09/15 03:29:07;;;;;;;0.80;0.80;;;10.50;31.10;;;;;;5016666;28;20099;-70
2023/09/15 03:31:34;;;;;;;1.10;1.00;;;10.60;23.00;;;;;;5000221;28;20044;-70
2023/09/15 03:33:59;;;;;;;2.10;1.00;;;10.50;29.40;;;;;;5016647;28;20088;-70
2023/09/15 03:36:29;;;;;;;0.88;0.88;;;10.50;27.40;;;;;;5016596;28;20080;-70
2023/09/15 03:38:57;;;;;;;1.13;1.00;;;10.50;28.80;;;;;;5016525;28;20461;-70
2023/09/15 03:41:27;;;;;;;0.82;0.80;;;10.50;26.50;;;;;;5016448;28;20049;-70
2023/09/15 03:43:53;;;;;;;1.08;0.98;;;10.40;23.50;;;;;;5016375;28;20049;-70
2023/09/15 03:46:19;;;;;;;1.67;1.15;;;10.30;30.00;;;;;;5016360;28;20124;-70
2023/09/15 03:48:44;;;;;;;1.33;0.90;;;10.30;36.30;;;;;;5016203;28;20128;-70
2023/09/15 03:51:10;;;;;;;0.80;0.80;;;10.30;44.00;;;;;;5016367;28;20040;-70
2023/09/15 03:53:36;;;;;;;1.77;1.00;;;10.40;40.90;;;;;;5016494;28;20033;-70
2023/09/15 03:56:01;;;;;;;2.30;1.63;;;10.30;51.50;;;;;;5016343;28;20043;-65
2023/09/15 03:58:28;;;;;;;1.10;1.00;;;10.40;39.90;;;;;;5033833;28;20037;-65
2023/09/15 04:00:53;;;;;;;2.15;1.05;;;10.40;44.30;;;;;;5016068;28;20409;-65
2023/09/15 04:03:20;;;;;;;1.20;1.10;;;10.40;38.30;;;;;;5033967;28;20041;-65
2023/09/15 04:05:46;;;;;;;1.45;1.00;;;10.40;36.50;;;;;;5015860;28;20049;-65
2023/09/15 04:08:13;;;;;;;1.08;1.00;;;10.40;31.20;;;;;;5033519;28;20052;-65
2023/09/15 04:10:38;;;;;;;1.63;1.20;;;10.30;30.80;;;;;;5033443;28;20056;-65
2023/09/15 04:13:04;;;;;;;1.33;0.95;;;10.30;34.80;;;;;;5015791;28;20041;-65
2023/09/15 04:15:29;;;;;;;1.00;0.88;;;10.30;50.80;;;;;;5033232;28;20056;-65
2023/09/15 04:17:55;;;;;;;1.13;1.00;;;10.30;52.10;;;;;;5033703;28;20047;-65
2023/09/15 04:20:21;;;;;;;1.13;0.90;;;10.30;53.30;;;;;;5033601;28;20485;-65
2023/09/15 04:22:46;;;;;;;1.08;0.98;;;10.30;52.70;;;;;;5033382;28;20077;-65
2023/09/15 04:25:12;;;;;;;1.08;0.98;;;10.30;55.90;;;;;;5015862;28;20481;-65
2023/09/15 04:27:38;;;;;;;1.10;1.00;;;10.30;51.20;;;;;;5015386;28;20049;-65
2023/09/15 04:30:04;;;;;;;0.93;0.93;;;10.40;50.30;;;;;;5033317;28;20128;-65
2023/09/15 04:32:30;;;;;;;1.08;1.08;;;10.20;64.70;;;;;;5033259;28;20045;-65
2023/09/15 04:35:08;;;;;;;1.48;1.00;;;10.20;56.80;;;;;;5033450;28;20219;-66
2023/09/15 04:37:34;;;;;;;1.30;1.15;;;10.30;52.30;;;;;;5033267;28;20045;-66
2023/09/15 04:40:01;;;;;;;0.73;0.73;;;10.20;52.80;;;;;;5033479;28;20489;-66
2023/09/15 04:42:27;;;;;;;1.52;1.20;;;10.20;52.80;;;;;;5015645;28;20045;-66
2023/09/15 04:44:53;;;;;;;1.40;1.00;;;10.20;47.60;;;;;;5015640;28;20077;-66
2023/09/15 04:47:35;;;;;;;1.05;1.05;;;10.20;59.00;;;;;;5032843;28;20072;-66
2023/09/15 04:50:01;;;;;;;1.77;1.02;;;10.20;48.60;;;;;;5033009;28;20439;-66
2023/09/15 04:52:27;;;;;;;1.17;1.10;;;10.10;54.80;;;;;;5015480;28;20029;-66
2023/09/15 04:54:56;;;;;;;1.75;1.40;;;10.10;51.90;;;;;;5033209;28;20073;-66
2023/09/15 04:57:21;;;;;;;1.80;1.13;;;10.10;45.80;;;;;;5015243;28;20409;-66
2023/09/15 04:59:47;;;;;;;1.30;1.00;;;10.10;44.70;;;;;;5015070;28;20033;-66
2023/09/15 05:02:13;;;;;;;1.58;1.27;;;10.10;56.90;;;;;;5032849;28;20124;-66
2023/09/15 05:04:40;;;;;;;1.23;1.13;;;10.10;55.80;;;;;;5033076;28;20041;-66
2023/09/15 05:07:05;;;;;;;0.90;0.90;;;10.00;68.90;;;;;;5032973;28;20451;-66
2023/09/15 05:09:31;;;;;;;1.33;1.23;;;10.00;67.10;;;;;;5015003;28;20120;-66
2023/09/15 05:11:57;;;;;;;1.25;1.13;;;10.00;65.30;;;;;;5015102;28;20041;-66
2023/09/15 05:14:22;;;;;;;1.30;1.02;;;10.00;62.60;;;;;;5032789;28;20033;-66
2023/09/15 05:16:48;;;;;;;1.75;1.25;;;10.00;62.00;;;;;;5032588;28;20045;-66
2023/09/15 05:19:14;;;;;;;1.20;1.10;;;10.00;67.10;;;;;;5032680;28;20041;-66
2023/09/15 05:21:40;;;;;;;1.42;1.10;;;9.90;67.50;;;;;;5032838;28;20041;-66
2023/09/15 05:24:06;;;;;;;3.53;1.58;;;9.90;78.50;;;;;;5032665;28;20041;-66
2023/09/15 05:26:31;;;;;;;1.30;1.20;;;9.90;78.50;;;;;;5032642;28;20121;-66
2023/09/15 05:28:57;;;;;;;1.25;1.15;;;9.90;76.40;;;;;;5032757;28;20052;-65
2023/09/15 05:31:25;;;;;;;1.20;1.10;;;9.90;77.30;;;;;;5014921;28;20545;-65
2023/09/15 05:33:57;;;;;;;1.58;1.17;;;10.00;77.70;;;;;;5032721;28;20042;-64
2023/09/15 05:36:24;;;;;;;1.23;1.02;;;9.90;73.80;;;;;;5015031;28;20045;-65
2023/09/15 05:38:50;;;;;;;1.58;1.13;;;10.00;76.20;;;;;;5032450;28;20092;-66
2023/09/15 05:41:15;;;;;;;1.15;1.05;;;10.00;70.00;;;;;;5017209;28;20045;-69
2023/09/15 05:43:41;;;;;;;0.98;0.90;;;10.00;59.00;;;;;;5018585;28;20098;-65
2023/09/15 05:46:07;;;;;;;1.23;1.13;;;10.10;52.20;;;;;;5036206;28;20045;-64
2023/09/15 05:48:33;;;;;;;1.05;1.00;;;10.00;49.40;;;;;;5036143;28;20437;-64
2023/09/15 05:50:59;;;;;;;1.40;1.02;;;10.10;50.50;;;;;;5018474;28;20056;-65
2023/09/15 05:53:24;;;;;;;1.77;1.13;;;10.10;51.60;;;;;;5018701;28;20048;-66
2023/09/15 05:55:50;;;;;;;1.27;1.17;;;10.20;64.60;;;;;;5036183;28;20034;-67
2023/09/15 05:58:16;;;;;;;1.25;1.15;;;10.20;61.50;;;;;;5019007;28;20516;-66
2023/09/15 06:00:42;;;;;;;0.95;0.95;;;10.30;60.70;;;;;;5018486;28;20060;-67
2023/09/15 06:03:08;;;;;;;1.73;1.20;;;10.30;60.50;;;;;;5018403;28;20057;-64
2023/09/15 06:05:34;;;;;;;1.27;1.17;;;10.30;57.10;;;;;;5036212;28;20033;-65
2023/09/15 06:08:03;;;;;;;1.88;1.35;;;10.40;61.20;;;;;;5018100;28;20084;-63
2023/09/15 06:10:28;;;;;;;1.63;1.00;;;10.40;68.10;;;;;;5036048;28;20042;-62
2023/09/15 06:12:54;;;;;;;1.63;1.23;;;10.50;65.10;;;;;;5018335;28;20041;-65
2023/09/15 06:15:21;;;;;;;1.35;1.25;;;10.50;58.70;;;;;;5001680;28;20065;-64
2023/09/15 06:17:47;;;;;;;1.13;1.10;;;10.60;60.20;;;;;;5035598;28;20053;-64
2023/09/15 06:20:13;;;;;;;1.55;1.40;;;10.70;60.10;;;;;;5035951;28;20536;-63
2023/09/15 06:22:39;;;;;;;1.73;1.30;;;10.70;56.30;;;;;;5035541;28;20120;-63
2023/09/15 06:25:05;;;;;;;1.73;1.50;;;10.80;54.80;;;;;;5035853;28;20034;-63
2023/09/15 06:27:33;;;;;;;1.45;1.35;;;10.90;54.60;;;;;;5035401;28;20034;-63
2023/09/15 06:29:59;;;;;;;1.27;1.17;;;11.00;49.20;;;;;;5035468;28;20041;-64
2023/09/15 06:32:24;;;;;;;1.63;1.20;;;11.10;45.80;;;;;;5017688;28;20049;-64
2023/09/15 06:34:50;;;;;;;1.48;1.30;;;11.10;41.20;;;;;;5035663;28;20481;-65
2023/09/15 06:37:16;;;;;;;2.00;1.27;;;11.20;37.40;;;;;;5035638;28;20044;-64
2023/09/15 06:39:42;;;;;;;1.30;1.20;;;11.40;36.30;;;;;;5035489;28;20473;-64
2023/09/15 06:42:10;;;;;;;1.02;1.00;;;11.40;33.80;;;;;;5035184;28;20050;-64
2023/09/15 06:44:36;;;;;;;1.58;1.48;;;11.60;21.20;;;;;;5017286;28;20056;-63
2023/09/15 06:47:03;;;;;;;1.48;1.38;;;11.70;19.90;;;;;;5035203;28;20397;-62
2023/09/15 06:49:30;;;;;;;1.63;1.30;;;11.80;13.20;;;;;;5035212;28;20045;-63
2023/09/15 06:51:56;;;;;;;1.70;1.30;;;12.20;6.10;;;;;;5017059;28;20041;-63
2023/09/15 06:54:21;;;;;;;1.75;1.23;;;12.00;1.00;;;;;;5017088;28;20042;-64
2023/09/15 06:56:47;;;;;;;1.50;1.13;;;12.20;1.00;;;;;;5034765;28;20474;-65
2023/09/15 06:59:13;;;;;;;1.38;1.13;;;12.30;1.00;;;;;;5034974;28;20042;-63
2023/09/15 07:01:39;;;;;;;1.38;1.27;;;12.70;1.00;;;;;;5035007;28;20420;-63
2023/09/15 07:04:06;;;;;;;1.63;1.30;;;12.60;1.00;;;;;;5017257;28;20041;-63
2023/09/15 07:06:31;;;;;;;1.23;1.13;;;12.70;1.00;;;;;;5016887;28;20099;-63
2023/09/15 07:08:57;;;;;;;1.42;1.33;;;12.80;1.00;;;;;;5016943;28;20046;-64
2023/09/15 07:11:23;;;;;;;2.28;1.48;;;12.90;1.00;;;;;;5034676;28;20045;-62
2023/09/15 07:13:49;;;;;;;1.02;0.93;;;13.40;1.00;;;;;;5016948;28;20124;-62
2023/09/15 07:16:14;;;;;;;1.20;1.10;;;13.10;99.90;;;;;;5016863;28;20041;-64
2023/09/15 07:18:40;;;;;;;1.30;1.20;;;13.10;99.90;;;;;;5016787;28;20088;-63
2023/09/15 07:21:06;;;;;;;1.30;1.20;;;13.30;99.90;;;;;;5034782;28;20037;-63
2023/09/15 07:23:31;;;;;;;1.55;1.17;;;13.50;99.90;;;;;;5034632;28;20098;-63
2023/09/15 07:25:57;;;;;;;1.30;1.20;;;13.80;99.90;;;;;;5034514;28;20103;-63
2023/09/15 07:28:23;;;;;;;1.42;1.10;;;13.60;99.90;;;;;;5034405;28;20491;-63
2023/09/15 07:30:49;;;;;;;1.15;1.10;;;13.80;99.90;;;;;;5034368;28;20125;-62
2023/09/15 07:33:15;;;;;;;1.35;1.20;;;13.90;99.90;;;;;;5016860;28;20401;-62
2023/09/15 07:35:41;;;;;;;2.75;1.30;;;14.00;99.90;;;;;;5034752;28;20026;-63
2023/09/15 07:38:06;;;;;;;1.20;1.10;;;14.10;99.90;;;;;;5034075;28;20056;-62
2023/09/15 07:40:32;;;;;;;1.55;1.27;;;14.30;99.90;;;;;;5034357;28;20129;-63
2023/09/15 07:42:59;;;;;;;1.58;1.38;;;14.40;99.90;;;;;;5033913;28;20045;-63
2023/09/15 07:45:25;;;;;;;1.08;1.00;;;14.50;99.90;;;;;;5016633;28;20084;-63
2023/09/15 07:47:50;;;;;;;1.20;1.10;;;14.60;99.90;;;;;;5033861;28;20077;-63
2023/09/15 07:50:19;;;;;;;1.48;1.30;;;14.70;90.10;;;;;;5034209;28;20048;-63
2023/09/15 07:52:46;;;;;;;1.20;1.10;;;14.80;1.00;;;;;;5034157;28;20404;-63
2023/09/15 07:55:12;;;;;;;0.90;0.90;;;14.90;1.00;;;;;;5034121;28;20033;-63
2023/09/15 07:57:39;;;;;;;1.20;1.10;;;15.00;99.90;;;;;;5033664;28;20424;-63
2023/09/15 08:00:06;;;;;;;1.70;1.48;;;15.10;99.90;;;;;;5016059;28;20401;-63
2023/09/15 08:02:32;;;;;;;1.25;1.15;;;15.20;99.90;;;;;;5015596;28;20048;-63
2023/09/15 08:04:57;;;;;;;1.00;0.90;;;15.20;99.90;;;;;;5015897;28;20492;-63
2023/09/15 08:07:23;;;;;;;1.35;1.00;;;15.40;99.90;;;;;;5033552;28;20081;-63
2023/09/15 08:09:49;;;;;;;1.08;0.88;;;15.50;99.90;;;;;;5033787;28;20037;-63
2023/09/15 08:12:19;;;;;;;1.08;0.98;;;15.50;99.90;;;;;;5033663;28;20042;-64
2023/09/15 08:14:45;;;;;;;1.33;0.98;;;15.50;1.00;;;;;;5033415;28;20037;-64
2023/09/15 08:17:12;;;;;;;1.10;1.00;;;15.50;99.90;;;;;;5033161;28;20064;-64
2023/09/15 08:19:37;;;;;;;0.95;0.95;;;15.60;99.90;;;;;;5033254;28;20409;-66
2023/09/15 08:22:03;;;;;;;2.75;1.20;;;15.60;42.10;;;;;;4999131;28;20029;-66
2023/09/15 08:24:29;;;;;;;1.45;1.17;;;15.70;1.00;;;;;;5015378;28;20041;-66
2023/09/15 08:26:54;;;;;;;1.48;1.17;;;15.80;99.90;;;;;;5015952;28;20041;-71
2023/09/15 08:29:20;;;;;;;1.25;1.00;;;15.80;99.90;;;;;;5015470;28;20037;-72
2023/09/15 08:31:45;;;;;;;1.10;1.00;;;15.80;26.20;;;;;;4999315;28;20083;-73
2023/09/15 08:34:12;;;;;;;1.10;1.00;;;15.90;99.90;;;;;;4999290;28;20076;-74
2023/09/15 08:36:38;;;;;;;1.20;1.10;;;16.10;99.90;;;;;;5015540;28;20125;-68
2023/09/15 08:39:04;;;;;;;1.73;1.02;;;16.00;99.90;;;;;;5015193;28;20053;-68
2023/09/15 08:41:40;;;;;;;1.77;1.13;;;16.10;1.00;;;;;;5015251;28;20068;-68
2023/09/15 08:44:09;;;;;;;1.95;1.10;;;16.90;1.00;;;;;;5015171;28;20459;-65
2023/09/15 08:46:37;;;;;;;2.15;1.30;;;16.30;1.00;;;;;;5015221;28;20041;-69
2023/09/15 08:49:05;;;;;;;1.00;0.90;;;16.40;99.90;;;;;;5015112;28;20041;-70
2023/09/15 08:51:31;;;;;;;1.15;0.82;;;16.40;1.00;;;;;;5015077;28;20116;-71
2023/09/15 08:53:58;;;;;;;0.90;0.90;;;16.50;1.00;;;;;;5032987;28;20051;-71
2023/09/15 08:56:27;;;;;;;1.13;1.02;;;16.60;99.90;;;;;;5015124;28;20416;-71
2023/09/15 08:58:53;;;;;;;1.15;1.00;;;16.60;99.90;;;;;;5015052;28;20041;-71
2023/09/15 09:01:19;;;;;;;0.98;0.90;;;16.70;99.90;;;;;;5014900;28;20056;-71
2023/09/15 09:03:45;;;;;;;0.75;0.75;;;16.80;99.90;;;;;;5014923;28;20111;-72
2023/09/15 09:06:12;;;;;;;1.02;0.90;;;16.70;99.90;;;;;;5015194;28;20511;-72
2023/09/15 09:08:44;;;;;;;0.80;0.80;;;16.90;6.40;;;;;;5015033;28;20048;-72
2023/09/15 09:11:12;;;;;;;1.50;0.98;;;16.90;99.90;;;;;;5032655;28;20041;-72
2023/09/15 09:13:38;;;;;;;2.03;1.05;;;16.90;1.00;;;;;;5014983;28;20077;-72
2023/09/15 09:16:10;;;;;;;0.70;0.70;;;17.00;1.00;;;;;;5017075;28;20057;-72
2023/09/15 09:18:36;;;;;;;1.23;0.80;;;17.00;1.00;;;;;;5002934;28;20095;-75
2023/09/15 09:21:03;;;;;;;0.88;0.75;;;17.00;1.00;;;;;;5019283;28;20488;-76
2023/09/15 09:23:29;;;;;;;1.73;1.00;;;17.10;1.00;;;;;;5003029;28;20049;-73
2023/09/15 09:25:55;;;;;;;0.68;0.68;;;17.20;99.90;;;;;;5003027;28;20128;-75
2023/09/15 09:28:21;;;;;;;1.25;0.70;;;17.30;99.90;;;;;;5018830;28;20149;-73
2023/09/15 09:30:47;;;;;;;1.13;0.98;;;17.30;99.90;;;;;;5018768;28;20042;-73
2023/09/15 09:33:12;;;;;;;1.27;0.85;;;17.40;99.90;;;;;;5019242;28;20033;-75
2023/09/15 09:35:38;;;;;;;0.90;0.85;;;17.60;99.90;;;;;;5002942;28;20124;-74
2023/09/15 09:38:04;;;;;;;1.52;1.15;;;17.40;89.70;;;;;;5019258;28;20037;-76
2023/09/15 09:40:33;;;;;;;0.80;0.80;;;17.50;92.50;;;;;;5003007;28;20494;-75
2023/09/15 09:42:59;;;;;;;1.65;1.05;;;18.00;1.00;;;;;;5018730;28;20098;-76
2023/09/15 09:45:26;;;;;;;1.17;0.85;;;17.60;1.00;;;;;;5020374;28;20131;-75
2023/09/15 09:47:56;;;;;;;2.15;1.02;;;17.60;1.00;;;;;;5018402;28;20045;-74
2023/09/15 09:50:22;;;;;;;0.95;0.80;;;17.70;1.00;;;;;;5018599;28;20168;-74
2023/09/15 09:52:48;;;;;;;1.25;1.00;;;17.80;1.00;;;;;;5018621;28;20103;-74
2023/09/15 09:55:17;;;;;;;1.30;0.90;;;18.00;1.00;;;;;;5020729;28;20500;-75
2023/09/15 09:57:42;;;;;;;1.50;0.95;;;18.00;99.90;;;;;;5018219;28;20404;-73
2023/09/15 10:00:09;;;;;;;1.13;0.90;;;18.10;99.90;;;;;;5018545;28;20033;-76
2023/09/15 10:02:42;;;;;;;1.05;0.95;;;18.20;99.90;;;;;;5018442;28;20045;-73
2023/09/15 10:05:08;;;;;;;1.38;0.90;;;;;;;;;;5018265;28;20049;-72
2023/09/15 10:07:35;;;;;;;1.10;0.80;;;18.40;99.90;;;;;;5018094;28;20095;-73
2023/09/15 10:10:03;;;;;;;1.17;0.90;;;18.40;99.90;;;;;;5018123;28;20044;-74
2023/09/15 10:12:29;;;;;;;1.38;0.90;;;18.60;99.90;;;;;;5018343;28;20037;-73
2023/09/15 10:14:56;;;;;;;1.25;0.88;;;18.70;99.90;;;;;;5018348;28;20041;-74
2023/09/15 10:17:23;;;;;;;1.55;1.05;;;18.70;99.90;;;;;;5017864;28;20050;-72
2023/09/15 10:19:50;;;;;;;1.17;1.00;;;18.80;99.90;;;;;;5017925;28;20037;-67
2023/09/15 10:22:17;;;;;;;0.77;0.68;;;18.90;99.90;;;;;;5018014;28;20099;-74
2023/09/15 10:24:47;;;;;;;0.65;0.65;;;19.10;99.90;;;;;;5018076;28;20539;-74
2023/09/15 10:27:17;;;;;;;0.70;0.70;;;19.10;99.90;;;;;;5017193;28;20045;-73
2023/09/15 10:29:46;;;;;;;1.10;0.70;;;19.20;99.90;;;;;;5017671;28;20386;-73
2023/09/15 10:32:21;;;;;;;0.95;0.70;;;19.30;99.90;;;;;;5017851;28;20132;-73
2023/09/15 10:34:48;;;;;;;0.55;0.55;;;19.40;99.90;;;;;;5017526;28;20041;-74
2023/09/15 10:37:14;;;;;;;0.50;0.50;;;19.40;99.90;;;;;;5001200;28;20044;-73
2023/09/15 10:39:41;;;;;;;1.33;0.80;;;19.30;99.90;;;;;;5035188;28;20469;-71
2023/09/15 10:42:13;;;;;;;0.90;0.82;;;19.40;99.90;;;;;;5017270;28;20042;-74
2023/09/15 10:44:41;;;;;;;0.77;0.60;;;19.40;99.90;;;;;;5017305;28;20038;-75
2023/09/15 10:47:20;;;;;;;1.15;0.70;;;19.40;99.90;;;;;;5035046;28;20084;-74
2023/09/15 10:49:53;;;;;;;1.50;0.80;;;19.90;99.90;;;;;;5000889;28;20389;-75
2023/09/15 10:52:35;;;;;;;1.17;0.90;;;19.40;99.90;;;;;;5017348;28;20116;-74
2023/09/15 10:55:01;;;;;;;1.30;0.70;;;19.40;99.90;;;;;;5017539;28;20057;-72
2023/09/15 10:57:27;;;;;;;1.20;0.70;;;19.50;99.90;;;;;;5017766;28;20048;-72
2023/09/15 10:59:54;;;;;;;0.85;0.82;;;19.50;99.90;;;;;;5017329;28;20060;-71
2023/09/15 11:02:20;;;;;;;0.90;0.88;;;19.50;99.90;;;;;;5017276;28;20049;-73
2023/09/15 11:04:47;;;;;;;1.27;0.98;;;19.40;99.90;;;;;;5016955;28;20509;-74
2023/09/15 11:07:14;;;;;;;1.00;0.70;;;19.50;99.90;;;;;;5034981;28;20099;-77
2023/09/15 11:09:43;;;;;;;1.90;0.85;;;19.60;99.90;;;;;;5016984;28;20042;-77
2023/09/15 11:12:12;;;;;;;0.65;0.65;;;19.60;99.90;;;;;;5017097;28;20120;-68
2023/09/15 11:14:38;;;;;;;0.90;0.85;;;19.60;99.90;;;;;;5016860;28;20045;-67
2023/09/15 11:17:04;;;;;;;0.50;0.50;;;19.70;99.90;;;;;;5034546;28;20060;-62
2023/09/15 11:19:32;;;;;;;1.17;0.90;;;19.60;99.90;;;;;;5034687;28;20477;-65
2023/09/15 11:22:04;;;;;;;1.40;0.60;;;19.60;99.90;;;;;;5016946;28;20084;-69
2023/09/15 11:24:32;;;;;;;1.10;1.00;;;19.60;99.90;;;;;;5034629;28;20523;-63
2023/09/15 11:27:00;;;;;;;1.27;0.80;;;19.70;99.90;;;;;;5034569;28;20092;-62
2023/09/15 11:29:29;;;;;;;0.60;0.50;;;19.80;99.90;;;;;;5034532;28;20045;-62
2023/09/15 11:31:56;;;;;;;0.30;0.30;;;19.80;99.90;;;;;;5034564;28;20072;-65
2023/09/15 11:34:22;;;;;;;0.52;0.50;;;19.80;99.90;;;;;;5034459;28;20080;-62
2023/09/15 11:36:50;;;;;;;2.53;0.68;;;19.80;99.90;;;;;;5034371;28;20068;-69
2023/09/15 11:39:16;;;;;;;1.48;0.93;;;20.00;99.90;;;;;;5015395;28;20041;-64
2023/09/15 11:41:55;;;;;;;0.90;0.70;;;20.00;99.90;;;;;;5033989;28;20040;-65
2023/09/15 11:44:30;;;;;;;0.70;0.70;;;20.00;99.90;;;;;;5034211;28;20029;-64
2023/09/15 11:47:00;;;;;;;0.95;0.85;;;20.00;99.90;;;;;;5034234;28;20477;-65
2023/09/15 11:49:26;;;;;;;1.02;0.68;;;20.00;99.90;;;;;;5034149;28;20077;-66
2023/09/15 11:51:57;;;;;;;0.60;0.60;;;20.10;99.90;;;;;;5034145;28;20046;-67
2023/09/15 11:54:24;;;;;;;1.00;0.90;;;20.20;99.90;;;;;;5034152;28;20409;-66
2023/09/15 11:56:50;;;;;;;1.02;0.60;;;20.20;99.90;;;;;;5033749;28;20041;-67
2023/09/15 11:59:15;;;;;;;0.70;0.50;;;20.30;99.90;;;;;;5034361;28;20120;-63
2023/09/15 12:01:41;;;;;;;1.45;0.88;;;20.30;99.90;;;;;;5015999;28;20041;-65
2023/09/15 12:04:09;;;;;;;2.10;1.17;;;20.30;99.90;;;;;;5033895;28;20048;-65
2023/09/15 12:06:35;;;;;;;1.42;0.88;;;20.30;99.90;;;;;;5033824;28;20171;-65
2023/09/15 12:09:01;;;;;;;0.93;0.85;;;20.30;99.90;;;;;;5015645;28;20553;-63
2023/09/15 12:11:26;;;;;;;0.60;0.60;;;20.30;99.90;;;;;;5016089;28;20189;-65
2023/09/15 12:13:52;;;;;;;1.05;0.73;;;20.30;99.90;;;;;;5015785;28;20052;-65
2023/09/15 12:16:19;;;;;;;1.25;0.90;;;20.40;99.90;;;;;;5033519;28;20053;-73
2023/09/15 12:18:49;;;;;;;0.65;0.65;;;20.40;99.90;;;;;;5015724;28;20084;-73
2023/09/15 12:21:15;;;;;;;0.73;0.73;;;20.50;99.90;;;;;;5033635;28;20367;-75
2023/09/15 12:23:42;;;;;;;1.13;0.82;;;20.50;99.90;;;;;;5015502;28;20043;-75
2023/09/15 12:26:09;;;;;;;0.80;0.80;;;20.60;99.90;;;;;;5015667;28;20053;-69
2023/09/15 12:28:35;;;;;;;1.25;0.70;;;20.70;99.90;;;;;;5033117;28;20052;-69
2023/09/15 12:31:01;;;;;;;0.85;0.50;;;20.90;99.90;;;;;;5015461;28;20083;-67
2023/09/15 12:33:29;;;;;;;0.45;0.45;;;21.10;99.90;;;;;;4999221;28;20041;-67
2023/09/15 12:35:56;;;;;;;0.80;0.80;;;20.90;99.90;;;;;;5033417;28;20084;-68
2023/09/15 12:38:22;;;;;;;1.08;0.93;;;20.90;99.90;;;;;;5033404;28;20439;-67
2023/09/15 12:40:50;;;;;;;0.82;0.77;;;20.90;99.90;;;;;;5033253;28;20123;-66
2023/09/15 12:43:15;;;;;;;1.10;0.63;;;20.90;99.90;;;;;;5033053;28;20033;-66
2023/09/15 12:45:41;;;;;;;0.90;0.70;;;20.90;99.90;;;;;;5015609;28;20144;-66
2023/09/15 12:48:10;;;;;;;0.77;0.70;;;20.80;99.90;;;;;;5033206;28;20049;-67
2023/09/15 12:50:36;;;;;;;1.52;0.90;;;20.80;99.90;;;;;;5015215;28;20041;-66